Time;durP1;ratioP1;P1;durP2;ratioP2;P2;SDS_P1;SDS_P2;PMS_P1;PMS_P2;Temp;Humidity;BMP_temperature;BMP_pressure;BME280_temperature;BME280_humidity;BME280_pressure;Samples;Min_cycle;Max_cycle;Signal;HPM_P1;HPM_P2
2021/08/25 00:01:31;;;;;;;8.68;6.30;;;;;;;;;;4466565;32;20641;-53
2021/08/25 00:03:56;;;;;;;9.68;6.15;;;;;;;;;;4465707;32;20240;-53
2021/08/25 00:06:22;;;;;;;10.05;6.20;;;;;;;;;;4465877;32;20298;-52
2021/08/25 00:08:47;;;;;;;15.30;7.60;;;;;;;;;;4465827;32;20534;-53
2021/08/25 00:11:13;;;;;;;10.48;6.90;;;;;;;;;;4464523;32;20338;-52
2021/08/25 00:13:38;;;;;;;8.35;6.03;;;;;;;;;;4465678;32;20207;-52
2021/08/25 00:16:04;;;;;;;9.45;6.37;;;;;;;;;;4465648;32;20259;-52
2021/08/25 00:18:29;;;;;;;8.88;6.70;;;;;;;;;;4465414;32;20719;-52
2021/08/25 00:20:55;;;;;;;7.75;5.82;;;;;;;;;;4465372;32;20715;-53
2021/08/25 00:23:20;;;;;;;8.77;5.50;;;;;;;;;;4465700;32;20295;-52
2021/08/25 00:25:46;;;;;;;13.45;6.87;;;;;;;;;;4465990;32;20683;-52
2021/08/25 00:28:11;;;;;;;8.23;6.53;;;;;;;;;;4465567;32;20236;-53
2021/08/25 00:30:37;;;;;;;9.38;6.22;;;;;;;;;;4465999;32;20294;-53
2021/08/25 00:33:03;;;;;;;8.77;6.65;;;;;;;;;;4464044;32;20290;-53
2021/08/25 00:35:29;;;;;;;6.72;5.87;;;;;;;;;;4465265;32;20279;-53
2021/08/25 00:37:54;;;;;;;7.72;6.37;;;;;;;;;;4465344;32;20293;-53
2021/08/25 00:40:20;;;;;;;7.20;6.50;;;;;;;;;;4455529;32;20217;-53
2021/08/25 00:42:45;;;;;;;8.60;5.43;;;;;;;;;;4449626;32;20392;-54
2021/08/25 00:45:11;;;;;;;7.65;6.28;;;;;;;;;;4449518;32;20268;-52
2021/08/25 00:47:38;;;;;;;7.40;5.72;;;;;;;;;;4449674;32;20297;-53
2021/08/25 00:50:05;;;;;;;7.68;5.70;;;;;;;;;;4449525;32;20669;-53
2021/08/25 00:52:31;;;;;;;8.25;6.20;;;;;;;;;;4464713;32;20513;-53
2021/08/25 00:54:58;;;;;;;11.40;5.95;;;;;;;;;;4464700;32;20212;-53
2021/08/25 00:57:24;;;;;;;7.55;6.07;;;;;;;;;;4457809;32;20200;-53
2021/08/25 00:59:50;;;;;;;8.70;6.35;;;;;;;;;;4456325;32;20262;-53
2021/08/25 01:02:42;;;;;;;7.57;6.03;;;;;;;;;;4457099;32;20778;-53
2021/08/25 01:05:08;;;;;;;7.07;5.80;;;;;;;;;;4434883;32;20272;-52
2021/08/25 01:07:36;;;;;;;9.40;6.07;;;;;;;;;;4457564;32;20840;-54
2021/08/25 01:10:28;;;;;;;9.75;6.20;;;;;;;;;;4458585;32;20216;-53
2021/08/25 01:12:58;;;;;;;10.48;6.30;;;;;;;;;;4462523;32;20284;-53
2021/08/25 01:15:35;;;;;;;14.20;6.90;;;;;;;;;;4465068;32;20642;-55
2021/08/25 01:18:05;;;;;;;10.30;6.20;;;;;;;;;;4464261;32;20200;-52
2021/08/25 01:20:32;;;;;;;8.80;6.15;;;;;;;;;;4462630;32;20220;-53
2021/08/25 01:22:58;;;;;;;6.18;5.53;;;;;;;;;;4464558;32;20653;-52
2021/08/25 01:25:31;;;;;;;7.62;6.00;;;;;;;;;;4464884;32;20406;-52
2021/08/25 01:28:06;;;;;;;12.40;6.40;;;;;;;;;;4464857;32;20205;-52
2021/08/25 01:30:35;;;;;;;7.35;6.22;;;;;;;;;;4465133;32;20212;-53
2021/08/25 01:33:00;;;;;;;7.87;6.28;;;;;;;;;;4453076;32;20201;-52
2021/08/25 01:35:36;;;;;;;8.35;6.20;;;;;;;;;;4456872;32;20706;-53
2021/08/25 01:38:03;;;;;;;7.87;6.45;;;;;;;;;;4465050;32;20231;-52
2021/08/25 01:40:29;;;;;;;6.55;5.62;;;;;;;;;;4464519;32;20201;-53
2021/08/25 01:42:54;;;;;;;9.65;5.87;;;;;;;;;;4464775;32;20284;-53
2021/08/25 01:45:20;;;;;;;8.98;6.43;;;;;;;;;;4464522;32;20216;-52
2021/08/25 01:47:45;;;;;;;7.62;6.75;;;;;;;;;;4464688;32;20302;-52
2021/08/25 01:50:12;;;;;;;10.88;6.22;;;;;;;;;;4463984;32;20506;-52
2021/08/25 01:52:38;;;;;;;8.05;6.50;;;;;;;;;;4464554;32;20235;-52
2021/08/25 01:55:04;;;;;;;6.65;5.43;;;;;;;;;;4464279;32;20726;-52
2021/08/25 01:57:29;;;;;;;9.38;5.82;;;;;;;;;;4464997;32;20351;-53
2021/08/25 01:59:54;;;;;;;9.90;5.85;;;;;;;;;;4464877;32;20208;-52
2021/08/25 02:02:20;;;;;;;7.75;5.78;;;;;;;;;;4464522;32;20796;-52
2021/08/25 02:04:45;;;;;;;8.93;6.25;;;;;;;;;;4464487;32;20235;-53
2021/08/25 02:07:11;;;;;;;7.45;5.97;;;;;;;;;;4463883;32;20231;-53
2021/08/25 02:09:36;;;;;;;13.30;6.45;;;;;;;;;;4464142;32;20561;-52
2021/08/25 02:12:02;;;;;;;8.60;6.28;;;;;;;;;;4464677;32;20606;-52
2021/08/25 02:14:27;;;;;;;7.07;6.03;;;;;;;;;;4464330;32;20261;-52
2021/08/25 02:16:53;;;;;;;7.50;5.87;;;;;;;;;;4467123;32;20299;-53
2021/08/25 02:19:18;;;;;;;8.50;6.62;;;;;;;;;;4467283;32;20270;-53
2021/08/25 02:21:44;;;;;;;9.32;6.97;;;;;;;;;;4467212;32;20230;-53
2021/08/25 02:24:09;;;;;;;7.70;6.12;;;;;;;;;;4466817;32;20216;-53
2021/08/25 02:26:35;;;;;;;8.25;5.10;;;;;;;;;;4467306;32;20787;-53
2021/08/25 02:29:00;;;;;;;11.07;7.10;;;;;;;;;;4467290;32;20673;-53
2021/08/25 02:31:26;;;;;;;11.23;6.60;;;;;;;;;;4466112;32;20271;-53
2021/08/25 02:33:51;;;;;;;9.60;6.43;;;;;;;;;;4451420;32;20518;-53
2021/08/25 02:36:19;;;;;;;14.05;8.48;;;;;;;;;;4465047;32;20313;-54
2021/08/25 02:38:45;;;;;;;11.57;8.77;;;;;;;;;;4467179;32;20283;-53
2021/08/25 02:41:13;;;;;;;13.18;8.88;;;;;;;;;;4466298;32;20333;-54
2021/08/25 02:43:38;;;;;;;9.35;7.40;;;;;;;;;;4467426;32;20322;-53
2021/08/25 02:46:05;;;;;;;11.95;7.60;;;;;;;;;;4467101;32;20766;-54
2021/08/25 02:48:31;;;;;;;14.73;7.20;;;;;;;;;;4454736;32;20545;-53
2021/08/25 02:50:56;;;;;;;10.05;7.62;;;;;;;;;;4452479;32;20267;-54
2021/08/25 02:53:22;;;;;;;11.02;7.00;;;;;;;;;;4453045;32;20205;-53
2021/08/25 02:55:48;;;;;;;7.60;6.05;;;;;;;;;;4451430;32;20576;-54
2021/08/25 02:58:13;;;;;;;10.05;7.68;;;;;;;;;;4449936;32;20259;-52
2021/08/25 03:00:40;;;;;;;9.77;7.12;;;;;;;;;;4451682;32;20276;-54
2021/08/25 03:03:05;;;;;;;7.47;5.87;;;;;;;;;;4463420;32;20219;-52
2021/08/25 03:05:31;;;;;;;10.98;6.78;;;;;;;;;;4457138;32;20336;-52
2021/08/25 03:07:56;;;;;;;10.32;6.43;;;;;;;;;;4451282;32;20639;-53
2021/08/25 03:10:22;;;;;;;6.72;5.72;;;;;;;;;;4457080;32;20247;-52
2021/08/25 03:12:47;;;;;;;9.30;6.28;;;;;;;;;;4466670;32;20267;-54
2021/08/25 03:15:13;;;;;;;9.20;6.32;;;;;;;;;;4466598;32;20267;-53
2021/08/25 03:17:39;;;;;;;17.80;6.62;;;;;;;;;;4459084;32;20690;-52
2021/08/25 03:20:07;;;;;;;14.82;7.20;;;;;;;;;;4466992;32;20237;-53
2021/08/25 03:22:32;;;;;;;10.55;7.00;;;;;;;;;;4457367;32;20272;-52
2021/08/25 03:24:58;;;;;;;8.88;7.05;;;;;;;;;;4451163;32;20273;-52
2021/08/25 03:27:23;;;;;;;8.70;6.30;;;;;;;;;;4450301;32;20403;-52
2021/08/25 03:29:49;;;;;;;11.15;7.60;;;;;;;;;;4450962;32;20299;-52
2021/08/25 03:32:15;;;;;;;9.73;6.43;;;;;;;;;;4457047;32;20519;-53
2021/08/25 03:34:40;;;;;;;9.32;6.68;;;;;;;;;;4462985;32;20270;-51
2021/08/25 03:37:06;;;;;;;8.45;6.12;;;;;;;;;;4450924;32;20664;-53
2021/08/25 03:39:32;;;;;;;7.78;6.53;;;;;;;;;;4450954;32;20301;-52
2021/08/25 03:41:58;;;;;;;9.80;6.43;;;;;;;;;;4450882;32;20226;-53
2021/08/25 03:44:24;;;;;;;15.70;7.50;;;;;;;;;;4450578;32;20434;-52
2021/08/25 03:46:49;;;;;;;7.12;6.30;;;;;;;;;;4450514;32;20355;-51
2021/08/25 03:49:15;;;;;;;8.00;6.57;;;;;;;;;;4450356;32;20886;-51
2021/08/25 03:51:41;;;;;;;10.15;6.20;;;;;;;;;;4450979;32;20718;-52
2021/08/25 03:54:07;;;;;;;13.43;8.88;;;;;;;;;;4450392;32;20236;-52
2021/08/25 03:56:32;;;;;;;11.10;8.18;;;;;;;;;;4457852;32;20665;-51
2021/08/25 03:58:58;;;;;;;11.48;8.25;;;;;;;;;;4465996;32;20629;-52
2021/08/25 04:01:23;;;;;;;10.52;6.78;;;;;;;;;;4465776;32;20309;-51
2021/08/25 04:03:49;;;;;;;13.65;8.85;;;;;;;;;;4466150;32;20699;-52
2021/08/25 04:06:14;;;;;;;11.68;7.70;;;;;;;;;;4466282;32;20267;-54
2021/08/25 04:08:40;;;;;;;15.25;7.53;;;;;;;;;;4464640;32;20232;-52
2021/08/25 04:11:05;;;;;;;10.15;7.55;;;;;;;;;;4465691;32;20335;-53
2021/08/25 04:13:31;;;;;;;11.80;7.82;;;;;;;;;;4465902;32;20217;-53
2021/08/25 04:15:56;;;;;;;10.93;7.95;;;;;;;;;;4465695;32;20320;-53
2021/08/25 04:18:22;;;;;;;8.38;6.68;;;;;;;;;;4465416;32;20665;-53
2021/08/25 04:20:47;;;;;;;8.68;6.85;;;;;;;;;;4465601;32;20345;-52
2021/08/25 04:23:13;;;;;;;11.00;7.20;;;;;;;;;;4465810;32;20248;-53
2021/08/25 04:25:41;;;;;;;12.20;7.70;;;;;;;;;;4466146;32;20301;-54
2021/08/25 04:28:07;;;;;;;10.20;7.68;;;;;;;;;;4465453;32;20269;-52
2021/08/25 04:30:32;;;;;;;13.98;8.98;;;;;;;;;;4465965;32;20632;-54
2021/08/25 04:32:58;;;;;;;10.77;7.65;;;;;;;;;;4465370;32;20283;-52
2021/08/25 04:35:23;;;;;;;9.05;7.15;;;;;;;;;;4457307;32;20727;-53
2021/08/25 04:37:49;;;;;;;12.55;7.07;;;;;;;;;;4449831;32;20263;-53
2021/08/25 04:40:14;;;;;;;10.75;7.45;;;;;;;;;;4450198;32;20204;-53
2021/08/25 04:42:40;;;;;;;10.00;7.60;;;;;;;;;;4449781;32;20263;-52
2021/08/25 04:45:06;;;;;;;12.02;6.75;;;;;;;;;;4449908;32;20217;-53
2021/08/25 04:47:31;;;;;;;8.68;6.75;;;;;;;;;;4449881;32;20284;-54
2021/08/25 04:49:57;;;;;;;11.15;8.32;;;;;;;;;;4448431;32;20246;-52
2021/08/25 04:52:22;;;;;;;11.93;7.10;;;;;;;;;;4454824;32;20267;-53
2021/08/25 04:54:47;;;;;;;10.27;8.07;;;;;;;;;;4465168;32;20212;-52
2021/08/25 04:57:13;;;;;;;8.57;7.03;;;;;;;;;;4464593;32;20295;-52
2021/08/25 04:59:38;;;;;;;9.65;7.35;;;;;;;;;;4465091;32;20215;-52
2021/08/25 05:02:04;;;;;;;8.73;6.95;;;;;;;;;;4464559;32;20250;-52
2021/08/25 05:04:29;;;;;;;9.55;8.55;;;;;;;;;;4464726;32;20274;-53
2021/08/25 05:06:55;;;;;;;14.68;8.57;;;;;;;;;;4464842;32;20290;-52
2021/08/25 05:09:20;;;;;;;13.25;7.47;;;;;;;;;;4464470;32;20223;-52
2021/08/25 05:11:46;;;;;;;11.40;8.07;;;;;;;;;;4451023;32;20333;-54
2021/08/25 05:14:11;;;;;;;11.32;8.25;;;;;;;;;;4464729;32;20272;-52
2021/08/25 05:16:37;;;;;;;10.50;8.68;;;;;;;;;;4464556;32;20707;-52
2021/08/25 05:19:02;;;;;;;20.95;8.50;;;;;;;;;;4464689;32;20307;-52
2021/08/25 05:21:28;;;;;;;11.35;8.88;;;;;;;;;;4464615;32;20749;-52
2021/08/25 05:23:54;;;;;;;9.45;7.80;;;;;;;;;;4464956;32;20217;-52
2021/08/25 05:26:19;;;;;;;9.98;7.95;;;;;;;;;;4464639;32;20317;-54
2021/08/25 05:28:45;;;;;;;10.85;8.38;;;;;;;;;;4464716;32;20228;-53
2021/08/25 05:31:10;;;;;;;10.35;7.55;;;;;;;;;;4464588;32;20295;-53
2021/08/25 05:33:36;;;;;;;11.98;8.55;;;;;;;;;;4464410;32;20232;-52
2021/08/25 05:36:01;;;;;;;10.00;8.77;;;;;;;;;;4452883;32;20298;-52
2021/08/25 05:38:28;;;;;;;12.75;8.90;;;;;;;;;;4449186;32;20627;-52
2021/08/25 05:40:53;;;;;;;13.00;8.68;;;;;;;;;;4448798;32;20292;-52
2021/08/25 05:43:19;;;;;;;19.00;9.25;;;;;;;;;;4448758;32;20213;-51
2021/08/25 05:45:44;;;;;;;15.02;8.27;;;;;;;;;;4449378;32;20259;-54
2021/08/25 05:48:10;;;;;;;13.10;8.65;;;;;;;;;;4450743;32;20246;-53
2021/08/25 05:50:36;;;;;;;11.25;8.73;;;;;;;;;;4465934;32;20259;-54
2021/08/25 05:53:01;;;;;;;13.48;9.73;;;;;;;;;;4467547;32;20323;-52
2021/08/25 05:55:27;;;;;;;10.70;8.23;;;;;;;;;;4466716;32;20298;-54
2021/08/25 05:57:53;;;;;;;18.55;8.45;;;;;;;;;;4467846;32;20314;-52
2021/08/25 06:00:19;;;;;;;11.63;9.23;;;;;;;;;;4468033;32;20224;-53
2021/08/25 06:02:45;;;;;;;13.00;9.02;;;;;;;;;;4466487;32;20253;-52
2021/08/25 06:05:12;;;;;;;12.15;9.57;;;;;;;;;;4451787;32;20332;-52
2021/08/25 06:07:38;;;;;;;11.70;8.35;;;;;;;;;;4457486;32;20232;-52
2021/08/25 06:10:05;;;;;;;10.30;7.82;;;;;;;;;;4467635;32;20307;-52
2021/08/25 06:12:31;;;;;;;16.58;8.48;;;;;;;;;;4467249;32;20308;-53
2021/08/25 06:14:56;;;;;;;11.68;7.95;;;;;;;;;;4467593;32;20313;-52
2021/08/25 06:17:22;;;;;;;10.40;8.48;;;;;;;;;;4467262;32;20262;-52
2021/08/25 06:19:47;;;;;;;10.50;7.87;;;;;;;;;;4467216;32;20212;-52
2021/08/25 06:22:13;;;;;;;9.30;7.00;;;;;;;;;;4467125;32;20288;-52
2021/08/25 06:24:38;;;;;;;10.45;7.35;;;;;;;;;;4466819;32;20248;-53
2021/08/25 06:27:04;;;;;;;8.45;7.45;;;;;;;;;;4466077;32;20327;-53
2021/08/25 06:29:30;;;;;;;13.25;7.82;;;;;;;;;;4467464;32;20326;-53
2021/08/25 06:31:56;;;;;;;9.77;7.35;;;;;;;;;;4466823;32;20310;-53
2021/08/25 06:34:22;;;;;;;7.82;6.15;;;;;;;;;;4463366;32;20228;-53
2021/08/25 06:36:47;;;;;;;11.15;7.28;;;;;;;;;;4452034;32;20734;-54
2021/08/25 06:39:13;;;;;;;10.13;7.35;;;;;;;;;;4452891;32;20348;-52
2021/08/25 06:41:38;;;;;;;8.48;7.40;;;;;;;;;;4466847;32;20337;-54
2021/08/25 06:44:04;;;;;;;20.12;9.30;;;;;;;;;;4465981;32;20279;-53
2021/08/25 06:46:29;;;;;;;12.10;7.60;;;;;;;;;;4449690;32;20311;-53
2021/08/25 06:48:55;;;;;;;14.70;8.52;;;;;;;;;;4451825;32;20244;-53
2021/08/25 06:51:20;;;;;;;14.35;7.43;;;;;;;;;;4465972;32;20371;-53
2021/08/25 06:53:46;;;;;;;9.45;7.60;;;;;;;;;;4465713;32;20228;-52
2021/08/25 06:56:11;;;;;;;8.95;7.57;;;;;;;;;;4466089;32;20278;-53
2021/08/25 06:58:37;;;;;;;11.25;8.32;;;;;;;;;;4466611;32;20231;-53
2021/08/25 07:01:02;;;;;;;12.15;7.78;;;;;;;;;;4466489;32;20264;-53
2021/08/25 07:03:28;;;;;;;17.23;9.68;;;;;;;;;;4466273;32;20545;-53
2021/08/25 07:05:53;;;;;;;11.52;7.93;;;;;;;;;;4465146;32;20326;-53
2021/08/25 07:08:19;;;;;;;9.43;7.62;;;;;;;;;;4466503;32;20224;-53
2021/08/25 07:10:44;;;;;;;11.70;8.77;;;;;;;;;;4466360;32;20291;-53
2021/08/25 07:13:10;;;;;;;9.70;7.95;;;;;;;;;;4466233;32;20266;-53
2021/08/25 07:15:35;;;;;;;12.18;7.85;;;;;;;;;;4465958;32;20604;-54
2021/08/25 07:18:01;;;;;;;14.48;8.45;;;;;;;;;;4465522;32;20339;-53
2021/08/25 07:20:26;;;;;;;12.13;8.65;;;;;;;;;;4465993;32;20723;-53
2021/08/25 07:22:51;;;;;;;12.55;8.40;;;;;;;;;;4465988;32;20248;-53
2021/08/25 07:25:17;;;;;;;11.12;8.40;;;;;;;;;;4466096;32;20280;-52
2021/08/25 07:27:43;;;;;;;10.68;8.23;;;;;;;;;;4466021;32;20305;-53
2021/08/25 07:30:10;;;;;;;14.63;8.73;;;;;;;;;;4465841;32;20384;-52
2021/08/25 07:32:39;;;;;;;11.80;7.97;;;;;;;;;;4458728;32;20216;-53
2021/08/25 07:35:06;;;;;;;10.48;8.25;;;;;;;;;;4459969;32;20359;-53
2021/08/25 07:37:32;;;;;;;12.73;8.80;;;;;;;;;;4450369;32;20286;-53
2021/08/25 07:39:57;;;;;;;11.65;8.18;;;;;;;;;;4450492;32;20248;-52
2021/08/25 07:42:23;;;;;;;11.05;8.30;;;;;;;;;;4463296;32;20617;-52
2021/08/25 07:44:48;;;;;;;12.13;8.32;;;;;;;;;;4465377;32;20313;-52
2021/08/25 07:47:14;;;;;;;12.18;8.57;;;;;;;;;;4465423;32;20324;-52
2021/08/25 07:49:39;;;;;;;11.45;8.05;;;;;;;;;;4465582;32;20212;-52
2021/08/25 07:52:05;;;;;;;9.13;7.20;;;;;;;;;;4465072;32;20232;-52
2021/08/25 07:54:31;;;;;;;11.50;9.55;;;;;;;;;;4465387;32;20582;-53
2021/08/25 07:56:56;;;;;;;11.10;8.60;;;;;;;;;;4454906;32;20275;-53
2021/08/25 07:59:22;;;;;;;13.85;9.00;;;;;;;;;;4453749;32;20673;-53
2021/08/25 08:01:48;;;;;;;14.18;8.80;;;;;;;;;;4457569;32;20314;-55
2021/08/25 08:04:13;;;;;;;10.65;8.63;;;;;;;;;;4456249;32;20303;-53
2021/08/25 08:06:39;;;;;;;13.68;9.43;;;;;;;;;;4463084;32;20723;-53
2021/08/25 08:09:04;;;;;;;15.18;9.43;;;;;;;;;;4463946;32;20391;-55
2021/08/25 08:11:30;;;;;;;15.07;10.68;;;;;;;;;;4465114;32;20317;-53
2021/08/25 08:13:55;;;;;;;12.55;9.32;;;;;;;;;;4464849;32;20223;-53
2021/08/25 08:16:21;;;;;;;16.95;10.32;;;;;;;;;;4464732;32;20283;-52
2021/08/25 08:18:59;;;;;;;9.70;8.15;;;;;;;;;;4464788;32;20296;-53
2021/08/25 08:21:26;;;;;;;20.00;10.82;;;;;;;;;;4464829;32;20723;-52
2021/08/25 08:23:52;;;;;;;13.38;9.43;;;;;;;;;;4465003;32;20364;-52
2021/08/25 08:26:17;;;;;;;14.02;10.07;;;;;;;;;;4464709;32;20275;-52
2021/08/25 08:28:43;;;;;;;10.10;8.95;;;;;;;;;;4464917;32;20383;-53
2021/08/25 08:31:10;;;;;;;13.43;8.55;;;;;;;;;;4464355;32;20287;-54
2021/08/25 08:33:36;;;;;;;14.27;9.48;;;;;;;;;;4464479;32;20647;-52
2021/08/25 08:36:02;;;;;;;12.90;9.38;;;;;;;;;;4455405;32;20306;-53
2021/08/25 08:38:27;;;;;;;13.82;8.32;;;;;;;;;;4462544;32;20247;-52
2021/08/25 08:40:53;;;;;;;13.80;9.32;;;;;;;;;;4464517;32;20663;-52
2021/08/25 08:43:18;;;;;;;12.18;8.57;;;;;;;;;;4461729;32;20278;-52
2021/08/25 08:45:44;;;;;;;13.73;8.15;;;;;;;;;;4461373;32;20449;-52
2021/08/25 08:48:15;;;;;;;9.77;8.68;;;;;;;;;;4462560;32;20224;-52
2021/08/25 08:50:43;;;;;;;13.68;9.13;;;;;;;;;;4459061;32;20220;-53
2021/08/25 08:53:10;;;;;;;10.82;7.80;;;;;;;;;;4454015;32;20279;-52
2021/08/25 08:55:36;;;;;;;9.77;8.30;;;;;;;;;;4447964;32;20204;-53
2021/08/25 08:58:03;;;;;;;13.73;7.62;;;;;;;;;;4462520;32;20671;-52
2021/08/25 09:00:29;;;;;;;11.23;8.35;;;;;;;;;;4463844;32;20353;-52
2021/08/25 09:02:54;;;;;;;15.48;8.75;;;;;;;;;;4463946;32;20702;-52
2021/08/25 09:05:29;;;;;;;10.05;7.70;;;;;;;;;;4462792;32;20216;-52
2021/08/25 09:08:01;;;;;;;12.57;7.32;;;;;;;;;;4464422;32;20192;-52
2021/08/25 09:10:38;;;;;;;11.23;8.68;;;;;;;;;;4451454;32;20367;-52
2021/08/25 09:13:06;;;;;;;11.77;8.48;;;;;;;;;;4460416;32;20338;-54
2021/08/25 09:15:35;;;;;;;12.60;8.18;;;;;;;;;;4450877;32;20659;-52
2021/08/25 09:18:03;;;;;;;10.07;7.28;;;;;;;;;;4457830;32;20232;-53
2021/08/25 09:20:31;;;;;;;10.32;7.60;;;;;;;;;;4463656;32;20542;-53
2021/08/25 09:23:19;;;;;;;10.15;8.93;;;;;;;;;;4464085;32;20589;-52
2021/08/25 09:25:46;;;;;;;10.93;7.95;;;;;;;;;;4463848;32;20192;-51
2021/08/25 09:28:15;;;;;;;11.68;8.75;;;;;;;;;;4464428;32;20731;-51
2021/08/25 09:30:56;;;;;;;12.02;8.27;;;;;;;;;;4457868;32;20239;-52
2021/08/25 09:33:26;;;;;;;13.62;8.98;;;;;;;;;;4453728;32;20291;-53
2021/08/25 09:35:55;;;;;;;9.23;7.68;;;;;;;;;;4464389;32;20216;-53
2021/08/25 09:38:22;;;;;;;13.15;8.77;;;;;;;;;;4464003;32;20259;-52
2021/08/25 09:40:58;;;;;;;13.35;7.82;;;;;;;;;;4462949;32;20204;-52
2021/08/25 09:43:33;;;;;;;11.05;7.93;;;;;;;;;;4463924;32;20358;-53
2021/08/25 09:46:06;;;;;;;10.52;6.93;;;;;;;;;;4463255;32;20258;-53
2021/08/25 09:48:40;;;;;;;8.88;7.97;;;;;;;;;;4463723;32;20571;-52
2021/08/25 09:51:06;;;;;;;13.32;8.95;;;;;;;;;;4461752;32;20242;-52
2021/08/25 09:53:32;;;;;;;14.68;8.63;;;;;;;;;;4463309;32;20242;-52
2021/08/25 09:55:58;;;;;;;13.68;8.30;;;;;;;;;;4458946;32;20276;-53
2021/08/25 09:58:24;;;;;;;9.00;8.00;;;;;;;;;;4447842;32;20322;-52
2021/08/25 10:00:53;;;;;;;10.45;7.10;;;;;;;;;;4447916;32;20267;-52
2021/08/25 10:03:19;;;;;;;11.07;9.02;;;;;;;;;;4447753;32;20389;-51
2021/08/25 10:05:47;;;;;;;10.90;8.95;;;;;;;;;;4448108;32;20275;-54
2021/08/25 10:08:15;;;;;;;10.98;8.02;;;;;;;;;;4460575;32;20208;-53
2021/08/25 10:10:41;;;;;;;7.57;6.70;;;;;;;;;;4463409;32;20319;-53
2021/08/25 10:13:06;;;;;;;15.35;8.25;;;;;;;;;;4463521;32;20291;-53
2021/08/25 10:15:33;;;;;;;12.32;8.27;;;;;;;;;;4463523;32;20351;-55
2021/08/25 10:18:00;;;;;;;12.75;7.68;;;;;;;;;;4463129;32;20671;-52
2021/08/25 10:20:26;;;;;;;9.88;7.60;;;;;;;;;;4460519;32;20244;-52
2021/08/25 10:22:53;;;;;;;13.07;7.60;;;;;;;;;;4454033;32;20715;-52
2021/08/25 10:25:19;;;;;;;11.40;7.85;;;;;;;;;;4456072;32;20220;-52
2021/08/25 10:28:03;;;;;;;8.48;7.10;;;;;;;;;;4455344;32;20288;-53
2021/08/25 10:30:30;;;;;;;9.25;6.93;;;;;;;;;;4457366;32;20640;-53
2021/08/25 10:33:01;;;;;;;11.82;6.90;;;;;;;;;;4451658;32;20228;-52
2021/08/25 10:35:32;;;;;;;12.27;8.10;;;;;;;;;;4455981;32;20603;-52
2021/08/25 10:38:26;;;;;;;9.70;6.95;;;;;;;;;;4465909;32;20258;-53
2021/08/25 10:41:00;;;;;;;10.15;7.57;;;;;;;;;;4466700;32;20311;-52
2021/08/25 10:43:43;;;;;;;10.77;6.22;;;;;;;;;;4464735;32;20261;-53
2021/08/25 10:46:14;;;;;;;12.50;7.32;;;;;;;;;;4466291;32;20230;-54
2021/08/25 10:48:39;;;;;;;8.82;6.12;;;;;;;;;;4466506;32;20290;-53
2021/08/25 10:51:21;;;;;;;9.35;6.93;;;;;;;;;;4466502;32;20271;-53
2021/08/25 10:53:46;;;;;;;14.57;7.45;;;;;;;;;;4466330;32;20208;-53
2021/08/25 10:56:20;;;;;;;8.45;5.97;;;;;;;;;;4464879;32;20279;-52
2021/08/25 10:58:55;;;;;;;8.43;6.57;;;;;;;;;;4465864;32;20216;-53
2021/08/25 11:01:30;;;;;;;8.75;6.40;;;;;;;;;;4465990;32;20536;-53
2021/08/25 11:04:02;;;;;;;8.93;7.10;;;;;;;;;;4465977;32;20219;-52
2021/08/25 11:06:40;;;;;;;12.00;6.57;;;;;;;;;;4465753;32;20304;-52
2021/08/25 11:09:20;;;;;;;8.43;7.07;;;;;;;;;;4466159;32;20224;-53
2021/08/25 11:11:54;;;;;;;8.38;6.95;;;;;;;;;;4465979;32;20652;-53
2021/08/25 11:14:25;;;;;;;8.88;6.22;;;;;;;;;;4464432;32;20569;-53
2021/08/25 11:16:53;;;;;;;9.02;6.75;;;;;;;;;;4465627;32;20236;-53
2021/08/25 11:19:21;;;;;;;7.60;6.28;;;;;;;;;;4465874;32;20260;-52
2021/08/25 11:21:47;;;;;;;8.98;7.18;;;;;;;;;;4465838;32;20244;-52
2021/08/25 11:24:12;;;;;;;9.38;5.95;;;;;;;;;;4457632;32;20246;-52
2021/08/25 11:26:38;;;;;;;7.57;5.93;;;;;;;;;;4458475;32;20279;-53
2021/08/25 11:29:05;;;;;;;7.95;6.47;;;;;;;;;;4464659;32;20920;-54
2021/08/25 11:31:30;;;;;;;7.32;5.87;;;;;;;;;;4465490;32;20204;-53
2021/08/25 11:33:56;;;;;;;9.65;6.43;;;;;;;;;;4461504;32;20220;-52
2021/08/25 11:36:21;;;;;;;9.38;7.10;;;;;;;;;;4457119;32;20325;-53
2021/08/25 11:38:47;;;;;;;8.80;6.80;;;;;;;;;;4455737;32;20212;-53
2021/08/25 11:41:12;;;;;;;16.08;7.80;;;;;;;;;;4451943;32;20343;-53
2021/08/25 11:43:48;;;;;;;8.43;7.50;;;;;;;;;;4457626;32;20273;-53
2021/08/25 11:46:24;;;;;;;8.07;7.05;;;;;;;;;;4457540;32;20272;-53
2021/08/25 11:48:50;;;;;;;7.62;6.00;;;;;;;;;;4456714;32;20228;-52
2021/08/25 11:51:16;;;;;;;12.07;7.12;;;;;;;;;;4456129;32;20335;-53
2021/08/25 11:53:43;;;;;;;7.45;6.68;;;;;;;;;;4457639;32;20208;-53
2021/08/25 11:56:09;;;;;;;7.50;6.72;;;;;;;;;;4453631;32;20263;-53
2021/08/25 11:58:37;;;;;;;9.63;6.22;;;;;;;;;;4458667;32;20200;-52
2021/08/25 12:01:03;;;;;;;9.13;6.18;;;;;;;;;;4457409;32;20605;-53
2021/08/25 12:03:43;;;;;;;10.88;7.18;;;;;;;;;;4455358;32;20776;-52
2021/08/25 12:06:10;;;;;;;8.13;6.60;;;;;;;;;;4457125;32;20204;-53
2021/08/25 12:08:44;;;;;;;7.82;6.22;;;;;;;;;;4459497;32;20335;-53
2021/08/25 12:11:12;;;;;;;15.88;7.12;;;;;;;;;;4451963;32;20212;-52
2021/08/25 12:13:42;;;;;;;10.75;6.95;;;;;;;;;;4454408;32;20211;-52
2021/08/25 12:16:20;;;;;;;10.98;6.80;;;;;;;;;;4464829;32;20596;-53
2021/08/25 12:18:52;;;;;;;8.05;7.03;;;;;;;;;;4449609;32;20725;-53
2021/08/25 12:21:19;;;;;;;7.72;6.57;;;;;;;;;;4449707;32;20208;-52
2021/08/25 12:24:01;;;;;;;8.40;6.35;;;;;;;;;;4462527;32;20287;-55
2021/08/25 12:26:28;;;;;;;8.98;6.90;;;;;;;;;;4456783;32;20649;-53
2021/08/25 12:28:54;;;;;;;7.45;6.10;;;;;;;;;;4465058;32;20341;-53
2021/08/25 12:31:22;;;;;;;9.45;6.78;;;;;;;;;;4464177;32;20264;-54
2021/08/25 12:34:13;;;;;;;8.35;5.45;;;;;;;;;;4449212;32;20277;-53
2021/08/25 12:37:01;;;;;;;6.35;5.72;;;;;;;;;;4448613;32;20263;-54
2021/08/25 12:39:28;;;;;;;7.47;5.55;;;;;;;;;;4448346;32;20855;-53
2021/08/25 12:41:57;;;;;;;8.45;5.47;;;;;;;;;;4448864;32;20551;-53
2021/08/25 12:44:24;;;;;;;8.35;5.97;;;;;;;;;;4448479;32;20323;-53
2021/08/25 12:47:01;;;;;;;11.32;5.82;;;;;;;;;;4449100;32;20205;-53
2021/08/25 12:49:28;;;;;;;11.20;6.40;;;;;;;;;;4448790;32;20282;-54
2021/08/25 12:51:55;;;;;;;7.65;5.40;;;;;;;;;;4449073;32;20309;-52
2021/08/25 12:54:21;;;;;;;7.60;6.00;;;;;;;;;;4448621;32;20752;-52
2021/08/25 12:56:47;;;;;;;8.05;5.78;;;;;;;;;;4457661;32;20358;-54
2021/08/25 12:59:12;;;;;;;8.90;6.32;;;;;;;;;;4463772;32;20714;-53
2021/08/25 13:01:38;;;;;;;8.23;6.18;;;;;;;;;;4464103;32;20287;-53
2021/08/25 13:04:03;;;;;;;8.80;5.80;;;;;;;;;;4462830;32;20381;-54
2021/08/25 13:06:29;;;;;;;9.30;4.50;;;;;;;;;;4464311;32;20617;-54
2021/08/25 13:08:54;;;;;;;7.62;5.30;;;;;;;;;;4463274;32;20270;-53
2021/08/25 13:11:20;;;;;;;10.98;6.50;;;;;;;;;;4463484;32;20270;-53
2021/08/25 13:13:46;;;;;;;7.82;5.07;;;;;;;;;;4463317;32;20317;-53
2021/08/25 13:16:15;;;;;;;8.68;5.10;;;;;;;;;;4463445;32;20343;-53
2021/08/25 13:18:41;;;;;;;9.73;4.55;;;;;;;;;;4463588;32;20615;-53
2021/08/25 13:21:07;;;;;;;7.75;5.15;;;;;;;;;;4463272;32;20569;-53
2021/08/25 13:23:33;;;;;;;9.40;6.40;;;;;;;;;;4463918;32;20247;-54
2021/08/25 13:25:58;;;;;;;9.32;5.43;;;;;;;;;;4463666;32;20272;-55
2021/08/25 13:28:24;;;;;;;8.75;4.70;;;;;;;;;;4463329;32;20343;-54
2021/08/25 13:30:49;;;;;;;14.70;5.85;;;;;;;;;;4463695;32;20299;-56
2021/08/25 13:33:15;;;;;;;7.68;4.95;;;;;;;;;;4463695;32;20270;-54
2021/08/25 13:35:40;;;;;;;8.25;4.93;;;;;;;;;;4453903;32;20288;-53
2021/08/25 13:38:06;;;;;;;7.80;5.35;;;;;;;;;;4448273;32;20228;-52
2021/08/25 13:40:33;;;;;;;8.68;6.20;;;;;;;;;;4447843;32;20659;-52
2021/08/25 13:42:59;;;;;;;7.47;4.72;;;;;;;;;;4447158;32;20245;-52
2021/08/25 13:45:24;;;;;;;6.50;4.45;;;;;;;;;;4447388;32;20388;-53
2021/08/25 13:47:50;;;;;;;9.75;5.80;;;;;;;;;;4447886;32;20321;-54
2021/08/25 13:50:15;;;;;;;8.07;5.90;;;;;;;;;;4446530;32;20591;-53
2021/08/25 13:52:41;;;;;;;12.98;6.57;;;;;;;;;;4448052;32;20274;-53
2021/08/25 13:55:07;;;;;;;11.32;5.87;;;;;;;;;;4447887;32;20243;-54
2021/08/25 13:57:32;;;;;;;4.75;4.30;;;;;;;;;;4448970;32;20243;-54
2021/08/25 14:00:00;;;;;;;6.37;5.32;;;;;;;;;;4454237;32;20654;-53
2021/08/25 14:02:26;;;;;;;6.87;4.78;;;;;;;;;;4463077;32;20684;-54
2021/08/25 14:04:51;;;;;;;7.12;5.62;;;;;;;;;;4456050;32;20275;-52
2021/08/25 14:07:17;;;;;;;9.65;5.80;;;;;;;;;;4454807;32;20899;-55
2021/08/25 14:09:42;;;;;;;12.48;5.93;;;;;;;;;;4453994;32;20711;-53
2021/08/25 14:12:08;;;;;;;10.82;5.20;;;;;;;;;;4457067;32;20428;-53
2021/08/25 14:14:33;;;;;;;9.57;5.93;;;;;;;;;;4457809;32;20200;-53
2021/08/25 14:16:59;;;;;;;9.52;6.00;;;;;;;;;;4459158;32;20414;-54
2021/08/25 14:19:24;;;;;;;10.82;5.65;;;;;;;;;;4457234;32;20216;-54
2021/08/25 14:21:50;;;;;;;16.10;5.90;;;;;;;;;;4454180;32;20672;-53
2021/08/25 14:24:15;;;;;;;10.48;5.90;;;;;;;;;;4450739;32;20598;-53
2021/08/25 14:26:41;;;;;;;6.68;4.85;;;;;;;;;;4450859;32;20310;-53
2021/08/25 14:29:06;;;;;;;9.60;5.20;;;;;;;;;;4435207;32;20732;-53
2021/08/25 14:31:32;;;;;;;7.30;4.87;;;;;;;;;;4452499;32;20268;-52
2021/08/25 14:33:57;;;;;;;9.35;4.95;;;;;;;;;;4466828;32;20762;-53
2021/08/25 14:36:23;;;;;;;12.75;4.95;;;;;;;;;;4452035;32;20722;-52